Time;durP1;ratioP1;P1;durP2;ratioP2;P2;SDS_P1;SDS_P2;PMS_P1;PMS_P2;Temp;Humidity;BMP_temperature;BMP_pressure;BME280_temperature;BME280_humidity;BME280_pressure;Samples;Min_cycle;Max_cycle;Signal;HPM_P1;HPM_P2
2021/04/05 00:01:08;;;;;;;3.00;2.65;;;8.50;95.10;;;;;;5003631;28;20663;-75
2021/04/05 00:03:35;;;;;;;3.42;3.22;;;8.50;95.00;;;;;;5008250;28;20220;-75
2021/04/05 00:06:01;;;;;;;3.40;3.20;;;8.40;95.00;;;;;;5010195;28;20220;-75
2021/04/05 00:08:28;;;;;;;3.53;3.22;;;8.30;95.10;;;;;;5007631;28;20243;-76
2021/04/05 00:10:57;;;;;;;3.20;2.90;;;8.20;95.10;;;;;;5010975;28;20702;-76
2021/04/05 00:13:27;;;;;;;3.17;2.97;;;8.20;95.50;;;;;;5009937;28;20714;-75
2021/04/05 00:15:54;;;;;;;2.60;2.50;;;8.10;95.30;;;;;;5008727;28;20189;-76
2021/04/05 00:18:22;;;;;;;3.00;2.80;;;8.00;95.40;;;;;;5009407;28;20224;-76
2021/04/05 00:20:52;;;;;;;2.90;2.70;;;8.00;95.70;;;;;;5008866;28;20201;-76
2021/04/05 00:23:18;;;;;;;2.63;2.50;;;8.00;95.60;;;;;;5008664;28;20239;-76
2021/04/05 00:25:45;;;;;;;3.33;3.13;;;7.90;95.60;;;;;;5006297;28;20204;-75
2021/04/05 00:28:13;;;;;;;3.08;2.88;;;7.80;95.60;;;;;;5008940;28;20216;-76
2021/04/05 00:30:41;;;;;;;2.58;2.38;;;7.80;95.70;;;;;;5004850;28;20193;-76
2021/04/05 00:33:08;;;;;;;2.47;2.28;;;7.80;95.70;;;;;;5007307;28;20216;-75
2021/04/05 00:35:37;;;;;;;2.90;2.70;;;7.80;95.70;;;;;;5008498;28;20207;-76
2021/04/05 00:38:06;;;;;;;2.72;2.58;;;7.80;95.60;;;;;;5008272;28;20722;-76
2021/04/05 00:40:37;;;;;;;2.55;2.35;;;7.70;95.70;;;;;;5002884;28;20204;-76
2021/04/05 00:43:05;;;;;;;2.88;2.78;;;7.70;95.80;;;;;;5010321;28;20855;-75
2021/04/05 00:45:34;;;;;;;3.00;2.80;;;7.70;96.00;;;;;;5010916;28;20235;-75
2021/04/05 00:48:02;;;;;;;4.47;3.03;;;7.60;95.80;;;;;;5008902;28;20250;-76
2021/04/05 00:50:37;;;;;;;3.10;2.90;;;7.60;95.90;;;;;;5008567;28;20201;-75
2021/04/05 00:53:06;;;;;;;2.28;2.17;;;7.60;95.90;;;;;;5008681;28;20235;-76
2021/04/05 00:55:32;;;;;;;2.85;2.70;;;7.60;95.80;;;;;;5009683;28;20223;-75
2021/04/05 00:58:00;;;;;;;3.15;2.72;;;7.60;95.90;;;;;;5008510;28;20216;-76
2021/04/05 01:00:33;;;;;;;2.90;2.63;;;7.50;95.80;;;;;;5006195;28;20195;-76
2021/04/05 01:03:00;;;;;;;3.50;3.30;;;7.50;96.10;;;;;;5008739;28;20220;-76
2021/04/05 01:05:27;;;;;;;2.70;2.53;;;7.40;96.20;;;;;;5010718;28;20220;-75
2021/04/05 01:07:53;;;;;;;3.08;2.88;;;7.40;96.30;;;;;;5008017;28;20228;-76
2021/04/05 01:10:21;;;;;;;3.10;2.85;;;7.30;96.20;;;;;;5008731;28;20417;-76
2021/04/05 01:12:48;;;;;;;2.63;2.53;;;7.30;96.30;;;;;;5004324;28;20236;-76
2021/04/05 01:15:16;;;;;;;3.20;3.00;;;7.30;96.30;;;;;;5006818;28;20223;-75
2021/04/05 01:17:43;;;;;;;3.08;2.88;;;7.30;96.30;;;;;;5005719;28;20222;-75
2021/04/05 01:20:13;;;;;;;2.50;2.30;;;7.20;96.30;;;;;;5008956;28;20196;-76
2021/04/05 01:22:41;;;;;;;3.00;2.78;;;7.20;96.40;;;;;;5007776;28;20227;-76
2021/04/05 01:25:10;;;;;;;2.88;2.67;;;7.20;96.40;;;;;;5005034;28;20724;-76
2021/04/05 01:27:37;;;;;;;3.08;2.80;;;7.20;96.30;;;;;;5005840;28;20282;-75
2021/04/05 01:30:08;;;;;;;2.85;2.75;;;7.20;96.40;;;;;;5007714;28;20201;-75
2021/04/05 01:32:34;;;;;;;2.83;2.63;;;7.20;96.50;;;;;;5007510;28;20220;-76
2021/04/05 01:35:01;;;;;;;2.88;2.67;;;7.10;96.50;;;;;;5007642;28;20220;-76
2021/04/05 01:37:28;;;;;;;2.88;2.67;;;7.10;96.70;;;;;;5006241;28;20215;-75
2021/04/05 01:39:55;;;;;;;2.72;2.53;;;7.10;96.90;;;;;;5008254;28;20227;-76
2021/04/05 01:42:22;;;;;;;3.00;2.80;;;7.10;96.80;;;;;;5009125;28;20234;-76
2021/04/05 01:44:48;;;;;;;3.20;2.90;;;7.10;96.70;;;;;;5008543;28;20220;-76
2021/04/05 01:47:15;;;;;;;3.00;2.80;;;7.10;96.70;;;;;;5008404;28;20231;-76
2021/04/05 01:49:42;;;;;;;3.35;3.15;;;7.10;96.80;;;;;;5009032;28;20239;-76
2021/04/05 01:52:12;;;;;;;2.85;2.67;;;7.10;96.70;;;;;;5003535;28;20234;-76
2021/04/05 01:54:39;;;;;;;2.90;2.70;;;7.00;96.70;;;;;;5004570;28;20212;-76
2021/04/05 01:57:10;;;;;;;3.08;2.88;;;7.00;96.80;;;;;;5007094;28;20196;-76
2021/04/05 01:59:38;;;;;;;3.28;3.08;;;7.00;96.80;;;;;;5005676;28;20204;-75
2021/04/05 02:02:05;;;;;;;3.78;3.47;;;6.90;97.00;;;;;;5007243;28;20193;-76
2021/04/05 02:04:34;;;;;;;3.33;3.10;;;6.90;97.00;;;;;;5006866;28;20221;-75
2021/04/05 02:07:01;;;;;;;3.28;3.08;;;6.90;97.60;;;;;;5007642;28;20213;-75
2021/04/05 02:09:28;;;;;;;3.10;2.90;;;6.80;97.20;;;;;;5005468;28;20394;-75
2021/04/05 02:11:54;;;;;;;3.33;3.03;;;6.80;97.10;;;;;;5006436;28;20697;-75
2021/04/05 02:14:22;;;;;;;3.33;3.13;;;6.80;97.10;;;;;;5006272;28;20780;-75
2021/04/05 02:16:49;;;;;;;3.20;3.00;;;6.80;97.10;;;;;;5005452;28;20200;-75
2021/04/05 02:19:16;;;;;;;3.28;3.08;;;6.80;97.20;;;;;;5003455;28;20232;-76
2021/04/05 02:21:47;;;;;;;3.05;2.85;;;6.70;97.30;;;;;;5003482;28;20278;-76
2021/04/05 02:24:14;;;;;;;2.95;2.75;;;6.70;97.50;;;;;;5001877;28;20326;-76
2021/04/05 02:26:46;;;;;;;2.70;2.50;;;6.70;97.50;;;;;;5004060;28;20227;-76
2021/04/05 02:29:12;;;;;;;3.05;2.85;;;6.70;97.40;;;;;;5004450;28;20246;-75
2021/04/05 02:31:44;;;;;;;3.28;2.78;;;6.70;97.30;;;;;;5003328;28;20195;-75
2021/04/05 02:34:13;;;;;;;3.40;3.20;;;6.60;97.40;;;;;;5000975;28;20220;-76
2021/04/05 02:36:41;;;;;;;3.30;3.00;;;6.50;97.60;;;;;;5005475;28;20246;-76
2021/04/05 02:39:10;;;;;;;2.88;2.67;;;6.50;97.70;;;;;;5002258;28;20250;-75
2021/04/05 02:41:40;;;;;;;2.80;2.67;;;6.50;97.70;;;;;;5007037;28;20208;-75
2021/04/05 02:44:08;;;;;;;2.97;2.78;;;6.50;97.80;;;;;;5008065;28;20228;-75
2021/04/05 02:46:37;;;;;;;3.03;2.83;;;6.40;97.90;;;;;;5007744;28;20302;-76
2021/04/05 02:49:10;;;;;;;2.45;2.33;;;6.30;98.00;;;;;;5005434;28;20220;-75
2021/04/05 02:51:43;;;;;;;2.80;2.60;;;6.30;98.10;;;;;;5006562;28;20196;-76
2021/04/05 02:54:11;;;;;;;2.90;2.70;;;6.30;98.10;;;;;;5005128;28;20216;-75
2021/04/05 02:56:40;;;;;;;3.05;2.85;;;6.30;98.10;;;;;;5003598;28;20488;-75
2021/04/05 02:59:08;;;;;;;3.00;2.80;;;6.40;98.10;;;;;;5002116;28;20575;-76
2021/04/05 03:01:35;;;;;;;3.00;2.80;;;6.40;98.00;;;;;;5005218;28;20579;-75
2021/04/05 03:04:03;;;;;;;2.55;2.35;;;6.40;97.90;;;;;;5008242;28;20663;-75
2021/04/05 03:06:31;;;;;;;2.83;2.63;;;6.40;98.00;;;;;;5007343;28;20718;-75
2021/04/05 03:09:00;;;;;;;2.90;2.70;;;6.40;98.10;;;;;;5006659;28;20694;-75
2021/04/05 03:11:27;;;;;;;2.50;2.30;;;6.40;98.10;;;;;;5007116;28;20203;-75
2021/04/05 03:13:53;;;;;;;2.47;2.38;;;6.30;98.10;;;;;;5007359;28;20228;-75
2021/04/05 03:16:22;;;;;;;3.13;2.90;;;6.30;98.30;;;;;;5005689;28;20195;-76
2021/04/05 03:18:50;;;;;;;3.28;3.08;;;6.20;98.20;;;;;;5006217;28;20220;-75
2021/04/05 03:21:18;;;;;;;3.67;3.05;;;6.20;98.30;;;;;;5004619;28;20197;-76
2021/04/05 03:23:47;;;;;;;2.70;2.50;;;6.20;98.40;;;;;;5006280;28;20455;-75
2021/04/05 03:26:13;;;;;;;2.78;2.58;;;6.10;98.40;;;;;;5005467;28;20219;-76
2021/04/05 03:28:40;;;;;;;2.72;2.50;;;6.10;98.50;;;;;;5005026;28;20282;-75
2021/04/05 03:31:10;;;;;;;3.30;3.10;;;6.00;98.50;;;;;;5005781;28;20200;-75
2021/04/05 03:33:44;;;;;;;2.92;2.72;;;5.90;98.70;;;;;;5004982;28;20232;-75
2021/04/05 03:36:14;;;;;;;3.33;3.13;;;5.90;98.80;;;;;;5004775;28;20662;-76
2021/04/05 03:38:41;;;;;;;3.15;2.95;;;5.80;98.90;;;;;;5007830;28;20215;-76
2021/04/05 03:41:16;;;;;;;3.45;3.25;;;5.80;99.00;;;;;;5010272;28;20963;-75
2021/04/05 03:43:49;;;;;;;3.17;2.97;;;5.70;99.10;;;;;;5008070;28;20596;-76
2021/04/05 03:46:21;;;;;;;2.55;2.45;;;5.70;99.30;;;;;;5010107;28;20228;-76
2021/04/05 03:48:55;;;;;;;3.17;2.97;;;5.70;99.50;;;;;;5011384;28;20270;-75
2021/04/05 03:51:29;;;;;;;3.33;3.13;;;5.70;99.50;;;;;;5008422;28;20203;-75
2021/04/05 03:53:58;;;;;;;3.63;3.33;;;5.70;99.60;;;;;;5008006;28;20875;-75
2021/04/05 03:56:36;;;;;;;3.05;2.85;;;5.60;99.70;;;;;;5009656;28;20199;-74
2021/04/05 03:59:07;;;;;;;3.25;3.05;;;5.50;99.70;;;;;;5007749;28;20235;-76
2021/04/05 04:01:49;;;;;;;2.90;2.70;;;5.50;99.80;;;;;;5009244;28;20247;-75
2021/04/05 04:04:23;;;;;;;3.30;3.00;;;5.50;99.90;;;;;;5011356;28;20733;-75
2021/04/05 04:06:57;;;;;;;3.92;3.63;;;5.50;99.90;;;;;;5010848;28;20266;-75
2021/04/05 04:09:26;;;;;;;3.40;3.20;;;5.50;99.90;;;;;;5009653;28;20223;-76
2021/04/05 04:11:57;;;;;;;3.60;3.30;;;5.50;99.90;;;;;;5008699;28;20577;-75
2021/04/05 04:14:24;;;;;;;3.55;3.22;;;5.50;99.90;;;;;;5008144;28;20227;-75
2021/04/05 04:16:52;;;;;;;3.53;3.28;;;5.40;99.90;;;;;;5007457;28;20664;-75
2021/04/05 04:19:20;;;;;;;3.10;2.90;;;5.40;99.90;;;;;;5006668;28;20787;-75
2021/04/05 04:21:48;;;;;;;3.22;3.03;;;5.30;99.90;;;;;;5010844;28;20228;-75
2021/04/05 04:24:15;;;;;;;4.25;3.00;;;5.30;99.90;;;;;;5009432;28;20220;-75
2021/04/05 04:26:42;;;;;;;3.30;3.00;;;5.30;99.90;;;;;;5010317;28;20224;-75
2021/04/05 04:29:18;;;;;;;3.80;3.50;;;5.30;99.90;;;;;;5004799;28;20714;-75
2021/04/05 04:31:45;;;;;;;4.22;3.85;;;5.30;99.90;;;;;;5011536;28;20215;-74
2021/04/05 04:34:15;;;;;;;3.17;2.97;;;5.30;99.90;;;;;;5009285;28;20224;-76
2021/04/05 04:36:41;;;;;;;4.00;3.60;;;5.30;99.90;;;;;;5010784;28;20199;-75
2021/04/05 04:39:08;;;;;;;3.38;3.17;;;5.30;99.90;;;;;;5001830;28;20220;-75
2021/04/05 04:41:35;;;;;;;3.70;3.50;;;5.30;99.90;;;;;;5008074;28;20204;-75
2021/04/05 04:44:03;;;;;;;3.78;3.40;;;5.20;99.90;;;;;;5007804;28;20232;-75
2021/04/05 04:46:31;;;;;;;2.90;2.70;;;5.20;99.90;;;;;;5008089;28;20227;-75
2021/04/05 04:48:58;;;;;;;3.28;3.00;;;5.30;99.90;;;;;;5005481;28;20231;-75
2021/04/05 04:51:25;;;;;;;3.40;3.20;;;5.30;99.90;;;;;;5006169;28;20200;-75
2021/04/05 04:53:54;;;;;;;3.90;3.60;;;5.30;99.90;;;;;;5006603;28;20243;-75
2021/04/05 04:56:21;;;;;;;3.33;3.08;;;5.30;99.90;;;;;;5004088;28;20189;-75
2021/04/05 04:58:48;;;;;;;3.45;3.25;;;5.20;99.90;;;;;;5004721;28;20224;-76
2021/04/05 05:01:16;;;;;;;3.30;3.10;;;5.20;99.90;;;;;;5007369;28;20200;-74
2021/04/05 05:03:50;;;;;;;3.67;3.38;;;5.20;99.90;;;;;;5009428;28;20220;-75
2021/04/05 05:06:19;;;;;;;3.40;3.20;;;5.30;99.90;;;;;;5006498;28;20228;-75
2021/04/05 05:08:46;;;;;;;2.67;2.50;;;5.40;99.90;;;;;;5007937;28;20733;-75
2021/04/05 05:11:15;;;;;;;3.50;3.15;;;5.50;99.90;;;;;;5005845;28;20713;-75
2021/04/05 05:13:41;;;;;;;3.22;3.03;;;5.60;99.90;;;;;;5006067;28;20220;-75
2021/04/05 05:16:09;;;;;;;2.88;2.70;;;5.70;99.90;;;;;;5007016;28;20201;-76
2021/04/05 05:18:36;;;;;;;3.30;3.10;;;5.70;99.90;;;;;;5007240;28;20227;-75
2021/04/05 05:21:07;;;;;;;3.30;3.10;;;5.80;99.90;;;;;;5008904;28;20235;-74
2021/04/05 05:23:36;;;;;;;3.25;2.97;;;5.80;99.90;;;;;;5004339;28;20282;-75
2021/04/05 05:26:04;;;;;;;4.13;3.78;;;5.90;99.90;;;;;;5005729;28;20603;-75
2021/04/05 05:28:34;;;;;;;3.17;2.97;;;5.90;99.90;;;;;;5004352;28;20220;-76
2021/04/05 05:31:02;;;;;;;3.90;3.60;;;6.10;99.90;;;;;;5014520;28;20200;-76
2021/04/05 05:33:29;;;;;;;3.72;3.38;;;6.30;99.90;;;;;;5016756;28;20231;-76
2021/04/05 05:35:57;;;;;;;3.22;3.03;;;6.40;99.90;;;;;;5019566;28;20762;-76
2021/04/05 05:38:25;;;;;;;3.90;3.25;;;6.70;99.90;;;;;;5018418;28;20720;-76
2021/04/05 05:40:54;;;;;;;3.50;3.30;;;6.90;99.90;;;;;;5009424;28;20686;-75
2021/04/05 05:43:31;;;;;;;3.50;3.20;;;7.00;99.50;;;;;;5009777;28;20220;-75
2021/04/05 05:46:08;;;;;;;3.47;3.20;;;7.10;99.50;;;;;;5056785;23;20223;-68
2021/04/05 05:49:14;;;;;;;3.45;3.25;;;7.30;99.60;;;;;;5022196;28;20215;-68
2021/04/05 05:51:58;;;;;;;4.07;3.17;;;7.30;99.90;;;;;;4979259;28;20211;-68
2021/04/05 05:54:36;;;;;;;3.70;3.40;;;7.40;99.60;;;;;;4980475;28;20342;-68
2021/04/05 05:57:10;;;;;;;3.70;3.38;;;7.50;99.50;;;;;;5016272;28;20597;-68
2021/04/05 05:59:46;;;;;;;3.90;3.60;;;7.60;99.40;;;;;;5023953;28;20221;-68
2021/04/05 06:02:26;;;;;;;3.97;3.58;;;7.80;99.00;;;;;;5027525;28;20225;-68
2021/04/05 06:05:06;;;;;;;4.03;3.47;;;8.00;99.00;;;;;;5026459;28;20262;-69
2021/04/05 06:07:42;;;;;;;3.45;3.25;;;8.00;98.90;;;;;;5028939;28;20227;-69
2021/04/05 06:10:17;;;;;;;3.63;3.33;;;8.10;99.00;;;;;;5024049;28;20281;-69
2021/04/05 06:12:58;;;;;;;3.05;2.85;;;8.30;99.20;;;;;;5026370;28;20199;-69
2021/04/05 06:15:27;;;;;;;3.63;3.42;;;8.60;98.70;;;;;;5029634;28;20243;-72
2021/04/05 06:18:04;;;;;;;3.45;3.25;;;9.00;98.20;;;;;;5027083;28;20192;-69
2021/04/05 06:20:38;;;;;;;4.05;3.30;;;9.30;97.60;;;;;;5025079;28;20211;-70
2021/04/05 06:23:36;;;;;;;3.70;3.42;;;9.50;97.50;;;;;;5026748;28;20573;-69
2021/04/05 06:26:13;;;;;;;3.80;3.50;;;9.70;97.90;;;;;;5027813;28;20406;-69
2021/04/05 06:29:03;;;;;;;3.80;3.50;;;9.80;97.60;;;;;;5024850;28;20199;-69
2021/04/05 06:31:39;;;;;;;4.07;3.70;;;9.90;97.50;;;;;;5027526;28;20298;-69
2021/04/05 06:34:21;;;;;;;5.78;3.65;;;10.00;97.50;;;;;;5025689;28;20204;-71
2021/04/05 06:36:53;;;;;;;5.13;3.72;;;10.10;97.40;;;;;;5026335;28;20219;-69
2021/04/05 06:39:22;;;;;;;5.03;3.60;;;10.30;97.40;;;;;;5024823;28;20612;-69
2021/04/05 06:42:16;;;;;;;4.78;3.55;;;10.50;97.30;;;;;;5026628;28;20216;-70
2021/04/05 06:45:18;;;;;;;4.00;3.70;;;10.70;96.70;;;;;;5022744;28;20259;-69
2021/04/05 06:48:10;;;;;;;3.67;3.38;;;10.90;96.50;;;;;;5026069;28;20222;-70
2021/04/05 06:50:44;;;;;;;3.70;3.40;;;10.90;96.00;;;;;;5023305;28;20658;-71
2021/04/05 06:53:58;;;;;;;7.85;4.30;;;10.90;95.80;;;;;;5021093;28;20219;-70
2021/04/05 06:56:32;;;;;;;4.32;3.70;;;10.80;95.80;;;;;;4917114;29;20254;-71
2021/04/05 06:59:21;;;;;;;3.85;3.60;;;10.90;95.70;;;;;;4927086;29;20923;-71
2021/04/05 07:02:15;;;;;;;3.50;3.20;;;10.80;95.80;;;;;;4991665;28;20219;-70
2021/04/05 07:04:48;;;;;;;4.20;3.80;;;10.80;95.80;;;;;;5027284;28;20601;-71
2021/04/05 07:07:24;;;;;;;4.82;3.40;;;10.90;95.50;;;;;;5023268;28;20681;-70
2021/04/05 07:09:57;;;;;;;4.47;4.07;;;11.10;95.30;;;;;;5024782;28;20204;-71
2021/04/05 07:12:41;;;;;;;4.53;4.03;;;11.20;94.90;;;;;;5013054;28;20216;-70
2021/04/05 07:15:23;;;;;;;3.40;3.10;;;11.20;95.00;;;;;;5012665;28;20234;-72
2021/04/05 07:18:00;;;;;;;3.30;3.10;;;11.40;94.70;;;;;;5011467;28;20289;-73
2021/04/05 07:20:35;;;;;;;4.07;3.70;;;11.40;94.90;;;;;;5014696;28;20192;-72
2021/04/05 07:23:19;;;;;;;3.42;3.13;;;11.50;94.90;;;;;;5021775;28;20277;-72
2021/04/05 07:25:59;;;;;;;4.68;3.58;;;11.50;94.50;;;;;;5020914;28;20566;-71
2021/04/05 07:28:40;;;;;;;3.35;3.15;;;11.60;94.00;;;;;;5012409;28;20266;-70
2021/04/05 07:31:22;;;;;;;4.45;3.95;;;11.70;93.90;;;;;;5011095;28;20744;-71
2021/04/05 07:33:51;;;;;;;3.92;3.33;;;11.80;94.00;;;;;;5016925;28;20204;-73
2021/04/05 07:36:25;;;;;;;3.63;3.05;;;11.90;94.10;;;;;;5020302;28;20223;-70
2021/04/05 07:39:01;;;;;;;3.40;3.10;;;11.80;93.60;;;;;;5013712;28;20207;-70
2021/04/05 07:41:38;;;;;;;3.92;3.25;;;11.90;93.30;;;;;;5010502;28;20232;-72
2021/04/05 07:44:28;;;;;;;3.33;3.03;;;12.10;93.20;;;;;;5011242;28;20202;-70
2021/04/05 07:47:05;;;;;;;3.67;3.08;;;12.30;92.90;;;;;;5009199;28;20247;-74
2021/04/05 07:49:38;;;;;;;6.25;3.25;;;12.30;92.50;;;;;;5012301;28;20198;-72
2021/04/05 07:52:13;;;;;;;3.55;3.25;;;12.70;92.50;;;;;;5009123;28;20223;-70
2021/04/05 07:54:40;;;;;;;3.20;2.90;;;12.90;91.90;;;;;;5021473;28;20215;-70
2021/04/05 07:57:12;;;;;;;3.88;3.58;;;12.90;92.00;;;;;;5009706;28;20564;-70
2021/04/05 07:59:49;;;;;;;3.30;3.05;;;12.90;92.30;;;;;;5013373;28;20227;-70
2021/04/05 08:02:38;;;;;;;3.78;3.17;;;13.10;92.00;;;;;;5012414;28;20223;-70
2021/04/05 08:05:19;;;;;;;4.18;3.10;;;13.10;91.70;;;;;;5012467;28;20369;-70
2021/04/05 08:08:02;;;;;;;3.90;3.20;;;13.10;91.50;;;;;;5007386;28;20701;-69
2021/04/05 08:10:33;;;;;;;3.30;3.00;;;13.10;91.50;;;;;;5012041;28;20227;-68
2021/04/05 08:13:12;;;;;;;4.00;2.95;;;13.00;91.70;;;;;;5017417;28;20228;-68
2021/04/05 08:15:50;;;;;;;3.35;2.95;;;13.20;91.70;;;;;;5020139;28;20227;-68
2021/04/05 08:18:25;;;;;;;4.03;3.72;;;13.70;91.90;;;;;;5021721;28;20243;-67
2021/04/05 08:21:00;;;;;;;5.10;3.80;;;13.80;91.80;;;;;;5028297;28;20195;-67
2021/04/05 08:23:38;;;;;;;4.18;3.88;;;13.80;91.70;;;;;;5020316;28;20273;-67
2021/04/05 08:26:21;;;;;;;3.70;3.35;;;13.70;91.80;;;;;;5024518;28;20233;-69
2021/04/05 08:28:52;;;;;;;3.60;3.30;;;13.40;91.40;;;;;;5027439;28;20212;-68
2021/04/05 08:32:01;;;;;;;6.47;3.72;;;13.20;91.60;;;;;;5025429;28;20211;-68
2021/04/05 08:34:47;;;;;;;5.30;4.00;;;13.50;92.20;;;;;;4960900;28;20227;-71
2021/04/05 08:37:20;;;;;;;4.15;3.78;;;13.30;92.00;;;;;;5018976;28;20222;-68
2021/04/05 08:39:59;;;;;;;3.85;3.55;;;13.10;91.90;;;;;;5021606;28;20573;-69
2021/04/05 08:42:31;;;;;;;6.80;3.75;;;12.90;92.20;;;;;;5019418;28;20199;-72
2021/04/05 08:45:08;;;;;;;5.13;3.70;;;13.00;92.40;;;;;;5004830;28;20486;-71
2021/04/05 08:47:38;;;;;;;3.50;2.97;;;13.10;92.40;;;;;;5020305;28;20219;-71
2021/04/05 08:50:11;;;;;;;4.32;3.92;;;13.20;92.20;;;;;;5018077;28;20318;-71
2021/04/05 08:52:41;;;;;;;4.53;3.90;;;13.30;92.00;;;;;;5016320;28;20199;-70
2021/04/05 08:55:11;;;;;;;4.90;3.88;;;13.50;91.80;;;;;;5013605;28;20227;-71
2021/04/05 08:57:42;;;;;;;6.13;4.13;;;13.70;91.70;;;;;;5019266;28;20192;-70
2021/04/05 09:00:11;;;;;;;4.97;3.45;;;13.40;91.50;;;;;;5016301;28;20446;-70
2021/04/05 09:02:40;;;;;;;3.53;2.97;;;13.60;91.50;;;;;;5017854;28;20196;-70
2021/04/05 09:05:11;;;;;;;4.53;3.78;;;13.70;91.40;;;;;;5019839;28;20290;-71
2021/04/05 09:07:54;;;;;;;4.25;3.83;;;13.80;91.20;;;;;;5017718;28;20355;-71
2021/04/05 09:10:25;;;;;;;3.85;3.45;;;13.90;91.20;;;;;;5019389;28;20220;-71
2021/04/05 09:12:53;;;;;;;3.78;3.47;;;13.90;90.90;;;;;;5017618;28;20196;-71
2021/04/05 09:16:00;;;;;;;3.42;3.22;;;13.90;90.70;;;;;;5016825;28;20220;-70
2021/04/05 09:18:46;;;;;;;3.78;3.30;;;13.70;90.90;;;;;;5022564;28;20195;-71
2021/04/05 09:21:29;;;;;;;4.53;3.55;;;14.00;90.60;;;;;;5026356;28;20275;-71
2021/04/05 09:24:37;;;;;;;4.00;3.38;;;14.20;90.30;;;;;;5023401;28;20728;-71
2021/04/05 09:27:55;;;;;;;3.65;3.35;;;14.00;90.90;;;;;;5011922;28;20216;-71
2021/04/05 09:30:45;;;;;;;3.90;3.50;;;14.40;90.60;;;;;;4961950;28;20253;-70
2021/04/05 09:33:48;;;;;;;5.22;3.95;;;14.60;90.50;;;;;;4959304;28;20198;-70
2021/04/05 09:36:54;;;;;;;3.78;3.30;;;14.30;89.70;;;;;;5018794;28;20239;-70
2021/04/05 09:40:05;;;;;;;4.70;3.25;;;14.30;90.20;;;;;;4986046;28;20508;-71
2021/04/05 09:43:08;;;;;;;3.78;3.47;;;14.50;90.10;;;;;;4955806;28;20252;-71
2021/04/05 09:45:43;;;;;;;4.40;3.60;;;14.30;89.70;;;;;;4952791;28;20233;-71
2021/04/05 09:48:33;;;;;;;5.65;3.45;;;14.30;89.90;;;;;;5000059;28;20270;-70
2021/04/05 09:51:33;;;;;;;3.90;3.60;;;14.30;90.10;;;;;;5020204;28;20421;-70
2021/04/05 09:54:10;;;;;;;5.15;3.45;;;14.50;90.10;;;;;;5018982;28;20204;-71
2021/04/05 09:56:44;;;;;;;3.67;3.08;;;15.10;89.80;;;;;;5022309;28;20638;-70
2021/04/05 09:59:16;;;;;;;3.33;3.05;;;15.70;88.70;;;;;;5019186;28;20559;-71
2021/04/05 10:01:49;;;;;;;5.75;3.80;;;15.90;86.90;;;;;;5017683;28;20388;-70
2021/04/05 10:04:21;;;;;;;4.07;3.22;;;15.80;86.90;;;;;;5021629;28;20219;-71
2021/04/05 10:06:51;;;;;;;4.13;3.72;;;15.60;86.90;;;;;;5018328;28;20239;-71
2021/04/05 10:09:21;;;;;;;4.70;3.50;;;15.70;86.60;;;;;;5018047;28;20269;-71
2021/04/05 10:11:49;;;;;;;6.25;3.72;;;15.60;86.70;;;;;;5014922;28;20204;-70
2021/04/05 10:14:19;;;;;;;3.35;3.15;;;15.50;85.90;;;;;;5017814;28;20203;-70
2021/04/05 10:16:52;;;;;;;3.63;3.17;;;15.70;87.30;;;;;;5021543;28;20909;-70
2021/04/05 10:19:25;;;;;;;3.42;3.13;;;16.40;86.00;;;;;;5020664;28;20208;-70
2021/04/05 10:21:58;;;;;;;3.53;3.22;;;16.40;84.90;;;;;;5016622;28;20200;-71
2021/04/05 10:24:25;;;;;;;5.57;3.85;;;16.20;85.40;;;;;;5021249;28;20743;-70
2021/04/05 10:26:54;;;;;;;4.20;3.80;;;16.20;86.60;;;;;;5023868;28;20223;-71
2021/04/05 10:29:24;;;;;;;3.85;3.55;;;16.20;85.80;;;;;;5021423;28;20204;-70
2021/04/05 10:31:52;;;;;;;5.07;3.80;;;16.10;85.50;;;;;;5014019;28;20199;-70
2021/04/05 10:34:24;;;;;;;3.50;3.20;;;16.30;85.70;;;;;;5018823;28;20216;-70
2021/04/05 10:36:56;;;;;;;3.70;3.25;;;16.30;84.70;;;;;;5015267;28;20196;-70
2021/04/05 10:39:23;;;;;;;5.22;3.58;;;16.50;84.60;;;;;;5015861;28;20204;-70
2021/04/05 10:41:56;;;;;;;3.92;3.63;;;16.60;83.30;;;;;;5018828;28;20211;-70
2021/04/05 10:44:27;;;;;;;4.47;3.45;;;16.70;83.40;;;;;;5015230;28;20586;-69
2021/04/05 10:46:59;;;;;;;4.93;3.42;;;16.30;83.70;;;;;;5017498;28;20219;-69
2021/04/05 10:49:28;;;;;;;5.03;3.08;;;16.00;84.20;;;;;;5015466;28;20204;-69
2021/04/05 10:52:06;;;;;;;3.60;3.30;;;16.40;82.90;;;;;;5012894;28;20211;-69
2021/04/05 10:54:38;;;;;;;9.60;2.97;;;16.40;80.60;;;;;;5017264;28;20223;-69
2021/04/05 10:57:08;;;;;;;3.47;3.20;;;16.50;81.60;;;;;;5019371;28;20227;-69
2021/04/05 10:59:43;;;;;;;4.88;3.05;;;16.40;79.30;;;;;;5019783;28;20224;-69
2021/04/05 11:02:12;;;;;;;3.20;2.95;;;16.40;81.20;;;;;;5017005;28;20194;-69
2021/04/05 11:04:40;;;;;;;2.72;2.53;;;16.40;80.00;;;;;;5023246;28;20550;-69
2021/04/05 11:07:10;;;;;;;3.35;2.95;;;16.50;80.40;;;;;;5018688;28;20218;-69
2021/04/05 11:09:40;;;;;;;4.63;3.00;;;16.50;79.90;;;;;;5021135;28;20230;-69
2021/04/05 11:12:10;;;;;;;3.13;2.70;;;16.50;78.90;;;;;;5018460;28;20204;-70
2021/04/05 11:14:38;;;;;;;3.08;2.78;;;16.50;79.00;;;;;;5018072;28;20243;-69
2021/04/05 11:17:05;;;;;;;2.78;2.58;;;16.60;79.10;;;;;;5015762;28;20259;-69
2021/04/05 11:19:36;;;;;;;4.28;3.08;;;16.70;78.40;;;;;;5017106;28;20596;-69
2021/04/05 11:22:04;;;;;;;3.33;3.03;;;16.90;78.50;;;;;;5017337;28;20594;-69
2021/04/05 11:24:35;;;;;;;5.30;3.25;;;16.90;78.30;;;;;;5015349;28;20223;-72
2021/04/05 11:27:06;;;;;;;3.55;2.70;;;17.00;77.60;;;;;;5015359;28;20229;-70
2021/04/05 11:29:35;;;;;;;3.70;3.40;;;16.80;78.00;;;;;;5018656;28;20226;-70
2021/04/05 11:32:03;;;;;;;3.60;2.83;;;16.70;78.20;;;;;;5017934;28;20727;-71
2021/04/05 11:34:34;;;;;;;4.97;3.20;;;16.50;78.50;;;;;;5020075;28;20220;-70
2021/04/05 11:37:03;;;;;;;3.42;3.13;;;16.40;78.20;;;;;;5019348;28;20192;-69
2021/04/05 11:39:34;;;;;;;3.10;2.80;;;16.30;78.40;;;;;;5017636;28;20644;-70
2021/04/05 11:42:03;;;;;;;3.10;2.80;;;16.30;79.20;;;;;;5019137;28;20330;-69
2021/04/05 11:44:39;;;;;;;2.97;2.65;;;16.40;78.10;;;;;;5028259;23;20238;-75
2021/04/05 11:47:07;;;;;;;2.92;2.63;;;16.50;78.90;;;;;;4976938;28;20230;-76
2021/04/05 11:49:34;;;;;;;3.35;3.05;;;16.60;78.40;;;;;;4982089;28;20205;-77
2021/04/05 11:52:08;;;;;;;3.35;2.83;;;16.70;77.50;;;;;;4988236;28;20207;-75
2021/04/05 11:54:41;;;;;;;3.85;2.95;;;16.50;77.70;;;;;;4986345;28;20205;-74
2021/04/05 11:57:10;;;;;;;4.45;3.00;;;16.40;78.10;;;;;;4979272;28;20220;-75
2021/04/05 11:59:45;;;;;;;7.50;3.80;;;16.40;77.00;;;;;;4985392;28;20203;-75
2021/04/05 12:02:22;;;;;;;4.25;3.47;;;16.00;75.10;;;;;;4983622;28;20412;-73
2021/04/05 12:04:55;;;;;;;3.67;3.00;;;15.80;76.90;;;;;;4986211;28;20220;-75
2021/04/05 12:07:24;;;;;;;9.88;3.58;;;15.70;76.50;;;;;;4984573;28;20249;-75
2021/04/05 12:10:04;;;;;;;3.47;3.17;;;15.80;78.10;;;;;;4980165;28;20205;-76
2021/04/05 12:12:37;;;;;;;3.78;3.38;;;15.90;76.60;;;;;;4990436;28;20742;-76
2021/04/05 12:15:08;;;;;;;3.67;3.38;;;15.90;76.70;;;;;;4992934;28;20225;-77
2021/04/05 12:17:35;;;;;;;7.80;2.90;;;16.20;77.80;;;;;;4982790;28;20201;-77
2021/04/05 12:20:05;;;;;;;3.58;2.90;;;16.30;76.90;;;;;;4990348;28;20322;-75
2021/04/05 12:22:33;;;;;;;5.13;3.08;;;16.30;76.40;;;;;;4988253;28;20240;-75
2021/04/05 12:25:03;;;;;;;3.55;3.03;;;16.30;76.40;;;;;;4989956;28;20750;-77
2021/04/05 12:27:32;;;;;;;3.88;3.03;;;16.40;76.80;;;;;;4989218;28;20227;-78
2021/04/05 12:30:03;;;;;;;3.60;3.25;;;16.60;76.00;;;;;;4984526;28;20358;-76
2021/04/05 12:32:31;;;;;;;3.38;2.85;;;16.40;76.00;;;;;;4970530;28;20597;-76
2021/04/05 12:35:04;;;;;;;4.95;4.03;;;16.30;76.40;;;;;;4971392;28;20761;-76
2021/04/05 12:37:32;;;;;;;3.22;2.85;;;16.30;75.60;;;;;;4983336;28;20251;-77
2021/04/05 12:40:02;;;;;;;4.05;2.83;;;16.30;76.30;;;;;;4983704;28;20201;-81
2021/04/05 12:42:31;;;;;;;11.55;3.60;;;16.30;75.60;;;;;;4966800;28;20488;-77
2021/04/05 12:45:00;;;;;;;5.25;3.13;;;16.30;76.20;;;;;;4964200;28;20233;-76
2021/04/05 12:47:35;;;;;;;8.57;3.22;;;16.10;76.70;;;;;;4964481;28;20233;-73
2021/04/05 12:50:05;;;;;;;3.42;3.13;;;15.90;76.30;;;;;;4963337;28;20229;-75
2021/04/05 12:52:35;;;;;;;3.45;3.15;;;15.50;77.50;;;;;;4967221;28;20265;-79
2021/04/05 12:55:10;;;;;;;4.15;3.05;;;15.40;77.90;;;;;;4968011;28;20229;-76
2021/04/05 12:57:37;;;;;;;4.07;2.83;;;15.30;78.40;;;;;;4962343;28;20196;-79
2021/04/05 13:00:07;;;;;;;4.00;3.08;;;15.10;78.90;;;;;;4964868;28;20229;-76
2021/04/05 13:02:35;;;;;;;4.68;3.13;;;15.20;79.30;;;;;;4966040;28;20312;-77
2021/04/05 13:05:09;;;;;;;3.42;3.10;;;15.40;78.20;;;;;;4967438;28;20229;-77
2021/04/05 13:07:45;;;;;;;4.07;3.20;;;15.50;78.20;;;;;;4964793;28;20218;-77
2021/04/05 13:10:22;;;;;;;3.67;2.90;;;15.60;77.80;;;;;;4968122;28;20239;-78
2021/04/05 13:12:53;;;;;;;5.70;2.83;;;15.60;78.00;;;;;;4983800;28;20196;-76
2021/04/05 13:15:23;;;;;;;2.88;2.67;;;15.70;77.80;;;;;;4983945;28;20730;-77
2021/04/05 13:17:52;;;;;;;3.17;2.80;;;15.70;77.70;;;;;;4982306;28;20299;-75
2021/04/05 13:20:21;;;;;;;6.20;2.88;;;15.60;77.90;;;;;;4977533;28;20228;-78
2021/04/05 13:22:54;;;;;;;2.63;2.42;;;15.50;79.20;;;;;;4983029;28;20201;-72